sim
Sign-in with your pilot id or email,
or register
Callsign
Passwort

Schedule Details

Flight Number: DLH587 (1)
Departure: Cairo International Airport (HECA) at 05:30
Arrival: Munich Airport (EDDM) at 09:35
Route: Lufthansa Passenger Schedule. Enter filed route here before submitting Pirep.

Weather Information
Getting current METAR information for HECA 190930Z 02018KT 9999 SCT025 33/20 Q1011 NOSIG
Getting current METAR information for EDDM 190920Z 08007KT 040V110 CAVOK 16/09 Q1020 NOSIG

Schedule Frequency

Route Map